sensor_id;sensor_type;location;lat;lon;timestamp;pressure;altitude;pressure_sealevel;temperature;humidity
45872;BME280;32333;55.844;-3.210;2023-04-25T00:01:51;99748.40;;;1.48;100.00
45872;BME280;32333;55.844;-3.210;2023-04-25T00:04:19;99748.73;;;1.42;100.00
45872;BME280;32333;55.844;-3.210;2023-04-25T00:06:46;99751.34;;;0.50;100.00
45872;BME280;32333;55.844;-3.210;2023-04-25T00:09:15;99752.20;;;1.44;100.00
45872;BME280;32333;55.844;-3.210;2023-04-25T00:11:43;99748.19;;;2.66;100.00
45872;BME280;32333;55.844;-3.210;2023-04-25T00:14:36;99757.79;;;2.20;100.00
45872;BME280;32333;55.844;-3.210;2023-04-25T00:17:04;99761.84;;;1.17;100.00
45872;BME280;32333;55.844;-3.210;2023-04-25T00:19:31;99766.75;;;0.46;100.00
45872;BME280;32333;55.844;-3.210;2023-04-25T00:22:00;99766.02;;;1.42;100.00
45872;BME280;32333;55.844;-3.210;2023-04-25T00:24:27;99766.75;;;1.64;100.00
45872;BME280;32333;55.844;-3.210;2023-04-25T00:26:55;99766.81;;;1.30;100.00
45872;BME280;32333;55.844;-3.210;2023-04-25T00:29:23;99766.51;;;-0.07;100.00
45872;BME280;32333;55.844;-3.210;2023-04-25T00:31:50;99762.83;;;0.97;100.00
45872;BME280;32333;55.844;-3.210;2023-04-25T00:34:18;99760.75;;;1.52;100.00
45872;BME280;32333;55.844;-3.210;2023-04-25T00:36:46;99759.36;;;1.06;100.00
45872;BME280;32333;55.844;-3.210;2023-04-25T00:39:14;99759.74;;;0.34;100.00
45872;BME280;32333;55.844;-3.210;2023-04-25T00:41:43;99758.49;;;1.62;100.00
45872;BME280;32333;55.844;-3.210;2023-04-25T00:44:37;99760.87;;;-0.96;100.00
45872;BME280;32333;55.844;-3.210;2023-04-25T00:47:05;99759.92;;;0.64;100.00
45872;BME280;32333;55.844;-3.210;2023-04-25T00:49:33;99756.53;;;0.57;100.00
45872;BME280;32333;55.844;-3.210;2023-04-25T00:52:01;99753.24;;;0.94;100.00
45872;BME280;32333;55.844;-3.210;2023-04-25T00:54:30;99752.35;;;0.54;100.00
45872;BME280;32333;55.844;-3.210;2023-04-25T00:56:57;99751.55;;;-0.12;100.00
45872;BME280;32333;55.844;-3.210;2023-04-25T00:59:26;99749.92;;;-0.46;100.00
45872;BME280;32333;55.844;-3.210;2023-04-25T01:01:54;99753.57;;;0.16;100.00
45872;BME280;32333;55.844;-3.210;2023-04-25T01:04:22;99755.76;;;-0.39;100.00
45872;BME280;32333;55.844;-3.210;2023-04-25T01:08:48;99755.90;;;0.03;100.00
45872;BME280;32333;55.844;-3.210;2023-04-25T01:11:16;99757.64;;;-1.23;100.00
45872;BME280;32333;55.844;-3.210;2023-04-25T01:14:36;99751.54;;;-0.72;100.00
45872;BME280;32333;55.844;-3.210;2023-04-25T01:17:04;99748.52;;;-0.86;100.00
45872;BME280;32333;55.844;-3.210;2023-04-25T01:19:31;99752.45;;;-1.12;100.00
45872;BME280;32333;55.844;-3.210;2023-04-25T01:22:00;99754.21;;;-0.87;100.00
45872;BME280;32333;55.844;-3.210;2023-04-25T01:24:28;99754.58;;;-0.08;100.00
45872;BME280;32333;55.844;-3.210;2023-04-25T01:26:55;99752.23;;;-0.22;100.00
45872;BME280;32333;55.844;-3.210;2023-04-25T01:29:23;99755.56;;;-1.38;100.00
45872;BME280;32333;55.844;-3.210;2023-04-25T01:31:51;99757.26;;;-0.89;100.00
45872;BME280;32333;55.844;-3.210;2023-04-25T01:34:19;99752.27;;;-1.06;100.00
45872;BME280;32333;55.844;-3.210;2023-04-25T01:36:50;99754.10;;;-1.38;100.00
45872;BME280;32333;55.844;-3.210;2023-04-25T01:39:18;99752.95;;;-1.07;100.00
45872;BME280;32333;55.844;-3.210;2023-04-25T01:41:46;99751.69;;;-1.15;100.00
45872;BME280;32333;55.844;-3.210;2023-04-25T01:44:36;99747.43;;;-0.89;100.00
45872;BME280;32333;55.844;-3.210;2023-04-25T01:47:04;99746.65;;;-0.94;100.00
45872;BME280;32333;55.844;-3.210;2023-04-25T01:49:31;99743.98;;;-0.23;100.00
45872;BME280;32333;55.844;-3.210;2023-04-25T01:52:00;99746.49;;;-0.91;100.00
45872;BME280;32333;55.844;-3.210;2023-04-25T01:54:30;99752.63;;;-0.43;100.00
45872;BME280;32333;55.844;-3.210;2023-04-25T01:56:58;99752.08;;;-2.06;100.00
45872;BME280;32333;55.844;-3.210;2023-04-25T01:59:26;99750.45;;;-0.62;100.00
45872;BME280;32333;55.844;-3.210;2023-04-25T02:01:54;99742.73;;;-0.23;100.00
45872;BME280;32333;55.844;-3.210;2023-04-25T02:04:22;99744.43;;;-0.63;100.00
45872;BME280;32333;55.844;-3.210;2023-04-25T02:06:51;99745.60;;;-0.94;100.00
45872;BME280;32333;55.844;-3.210;2023-04-25T02:09:18;99740.63;;;-2.06;100.00
45872;BME280;32333;55.844;-3.210;2023-04-25T02:11:46;99745.88;;;-1.08;100.00
45872;BME280;32333;55.844;-3.210;2023-04-25T02:14:36;99747.95;;;-1.21;100.00
45872;BME280;32333;55.844;-3.210;2023-04-25T02:17:04;99750.32;;;-1.28;100.00
45872;BME280;32333;55.844;-3.210;2023-04-25T02:19:31;99752.85;;;-1.11;100.00
45872;BME280;32333;55.844;-3.210;2023-04-25T02:22:00;99751.80;;;-0.65;100.00
45872;BME280;32333;55.844;-3.210;2023-04-25T02:24:29;99752.64;;;-1.59;100.00
45872;BME280;32333;55.844;-3.210;2023-04-25T02:26:56;99752.70;;;-0.38;100.00
45872;BME280;32333;55.844;-3.210;2023-04-25T02:29:25;99753.13;;;-1.24;100.00
45872;BME280;32333;55.844;-3.210;2023-04-25T02:31:52;99750.22;;;-0.62;100.00
45872;BME280;32333;55.844;-3.210;2023-04-25T02:34:21;99755.78;;;-0.69;100.00
45872;BME280;32333;55.844;-3.210;2023-04-25T02:36:48;99757.91;;;-0.53;100.00
45872;BME280;32333;55.844;-3.210;2023-04-25T02:39:16;99758.98;;;-1.47;100.00
45872;BME280;32333;55.844;-3.210;2023-04-25T02:41:44;99761.15;;;-1.21;100.00
45872;BME280;32333;55.844;-3.210;2023-04-25T02:44:36;99759.63;;;-0.72;100.00
45872;BME280;32333;55.844;-3.210;2023-04-25T02:47:04;99759.11;;;-0.43;100.00
45872;BME280;32333;55.844;-3.210;2023-04-25T02:49:31;99758.52;;;-1.27;100.00
45872;BME280;32333;55.844;-3.210;2023-04-25T02:52:00;99758.76;;;-1.56;100.00
45872;BME280;32333;55.844;-3.210;2023-04-25T02:54:28;99757.63;;;-0.78;100.00
45872;BME280;32333;55.844;-3.210;2023-04-25T02:56:55;99760.74;;;-0.82;100.00
45872;BME280;32333;55.844;-3.210;2023-04-25T02:59:23;99758.26;;;-2.24;100.00
45872;BME280;32333;55.844;-3.210;2023-04-25T03:01:51;99758.87;;;-1.73;100.00
45872;BME280;32333;55.844;-3.210;2023-04-25T03:04:20;99759.37;;;-0.93;100.00
45872;BME280;32333;55.844;-3.210;2023-04-25T03:06:52;99758.66;;;-1.60;100.00
45872;BME280;32333;55.844;-3.210;2023-04-25T03:09:19;99760.83;;;-0.86;100.00
45872;BME280;32333;55.844;-3.210;2023-04-25T03:11:47;99762.00;;;-0.64;100.00
45872;BME280;32333;55.844;-3.210;2023-04-25T03:14:36;99757.69;;;-1.78;100.00
45872;BME280;32333;55.844;-3.210;2023-04-25T03:17:03;99758.88;;;-1.86;100.00
45872;BME280;32333;55.844;-3.210;2023-04-25T03:19:31;99763.57;;;-0.82;100.00
45872;BME280;32333;55.844;-3.210;2023-04-25T03:22:00;99762.64;;;-1.59;100.00
45872;BME280;32333;55.844;-3.210;2023-04-25T03:24:27;99765.85;;;-1.40;100.00
45872;BME280;32333;55.844;-3.210;2023-04-25T03:26:55;99765.64;;;-1.44;100.00
45872;BME280;32333;55.844;-3.210;2023-04-25T03:29:23;99767.92;;;-1.44;100.00
45872;BME280;32333;55.844;-3.210;2023-04-25T03:31:51;99773.42;;;-1.14;100.00
45872;BME280;32333;55.844;-3.210;2023-04-25T03:34:18;99766.38;;;-0.21;100.00
45872;BME280;32333;55.844;-3.210;2023-04-25T03:36:46;99765.92;;;-0.98;100.00
45872;BME280;32333;55.844;-3.210;2023-04-25T03:39:16;99768.20;;;-0.21;100.00
45872;BME280;32333;55.844;-3.210;2023-04-25T03:41:43;99762.96;;;-0.18;100.00
45872;BME280;32333;55.844;-3.210;2023-04-25T03:44:36;99753.50;;;0.05;100.00
45872;BME280;32333;55.844;-3.210;2023-04-25T03:47:04;99759.05;;;-0.32;100.00
45872;BME280;32333;55.844;-3.210;2023-04-25T03:49:33;99760.28;;;-0.81;100.00
45872;BME280;32333;55.844;-3.210;2023-04-25T03:52:01;99756.47;;;-1.08;100.00
45872;BME280;32333;55.844;-3.210;2023-04-25T03:54:29;99756.26;;;-0.81;100.00
45872;BME280;32333;55.844;-3.210;2023-04-25T03:56:56;99754.41;;;-0.53;100.00
45872;BME280;32333;55.844;-3.210;2023-04-25T03:59:25;99751.36;;;-0.81;100.00
45872;BME280;32333;55.844;-3.210;2023-04-25T04:01:53;99753.61;;;-0.62;100.00
45872;BME280;32333;55.844;-3.210;2023-04-25T04:04:20;99754.11;;;-1.49;100.00
45872;BME280;32333;55.844;-3.210;2023-04-25T04:06:48;99750.97;;;-0.21;100.00
45872;BME280;32333;55.844;-3.210;2023-04-25T04:09:16;99748.30;;;-1.13;100.00
45872;BME280;32333;55.844;-3.210;2023-04-25T04:11:44;99748.62;;;-0.72;100.00
45872;BME280;32333;55.844;-3.210;2023-04-25T04:14:36;99750.67;;;-0.84;100.00
45872;BME280;32333;55.844;-3.210;2023-04-25T04:17:03;99749.83;;;-1.00;100.00
45872;BME280;32333;55.844;-3.210;2023-04-25T04:19:31;99752.84;;;-0.37;100.00
45872;BME280;32333;55.844;-3.210;2023-04-25T04:22:00;99756.51;;;-1.05;100.00
45872;BME280;32333;55.844;-3.210;2023-04-25T04:24:27;99758.80;;;-1.71;100.00
45872;BME280;32333;55.844;-3.210;2023-04-25T04:26:55;99765.09;;;-1.55;100.00
45872;BME280;32333;55.844;-3.210;2023-04-25T04:29:23;99764.35;;;-1.46;100.00
45872;BME280;32333;55.844;-3.210;2023-04-25T04:31:51;99768.38;;;-1.54;100.00
45872;BME280;32333;55.844;-3.210;2023-04-25T04:34:19;99768.57;;;-0.99;100.00
45872;BME280;32333;55.844;-3.210;2023-04-25T04:36:47;99771.64;;;-1.52;100.00
45872;BME280;32333;55.844;-3.210;2023-04-25T04:39:15;99771.71;;;-0.86;100.00
45872;BME280;32333;55.844;-3.210;2023-04-25T04:41:43;99768.21;;;-1.05;100.00
45872;BME280;32333;55.844;-3.210;2023-04-25T04:44:36;99772.47;;;-1.58;100.00
45872;BME280;32333;55.844;-3.210;2023-04-25T04:47:04;99772.44;;;-0.46;100.00
45872;BME280;32333;55.844;-3.210;2023-04-25T04:49:31;99772.57;;;-0.82;100.00
45872;BME280;32333;55.844;-3.210;2023-04-25T04:51:59;99772.74;;;-0.72;100.00
45872;BME280;32333;55.844;-3.210;2023-04-25T04:54:27;99775.00;;;-1.07;100.00
45872;BME280;32333;55.844;-3.210;2023-04-25T04:56:54;99772.85;;;-0.68;100.00
45872;BME280;32333;55.844;-3.210;2023-04-25T04:59:22;99768.34;;;-0.92;100.00
45872;BME280;32333;55.844;-3.210;2023-04-25T05:01:52;99761.51;;;-1.78;100.00
45872;BME280;32333;55.844;-3.210;2023-04-25T05:04:19;99760.10;;;-2.16;100.00
45872;BME280;32333;55.844;-3.210;2023-04-25T05:06:47;99765.06;;;-1.15;100.00
45872;BME280;32333;55.844;-3.210;2023-04-25T05:09:16;99766.70;;;-1.06;100.00
45872;BME280;32333;55.844;-3.210;2023-04-25T05:11:43;99774.31;;;-1.15;100.00
45872;BME280;32333;55.844;-3.210;2023-04-25T05:14:36;99779.08;;;-0.83;100.00
45872;BME280;32333;55.844;-3.210;2023-04-25T05:17:04;99779.68;;;-0.91;100.00
45872;BME280;32333;55.844;-3.210;2023-04-25T05:19:32;99782.56;;;-0.10;100.00
45872;BME280;32333;55.844;-3.210;2023-04-25T05:22:00;99780.17;;;-0.58;100.00
45872;BME280;32333;55.844;-3.210;2023-04-25T05:24:28;99785.11;;;-0.45;100.00
45872;BME280;32333;55.844;-3.210;2023-04-25T05:26:57;99786.46;;;-0.40;100.00
45872;BME280;32333;55.844;-3.210;2023-04-25T05:29:25;99787.27;;;-0.95;100.00
45872;BME280;32333;55.844;-3.210;2023-04-25T05:31:53;99788.76;;;-0.76;100.00
45872;BME280;32333;55.844;-3.210;2023-04-25T05:34:21;99783.28;;;-0.25;100.00
45872;BME280;32333;55.844;-3.210;2023-04-25T05:36:50;99785.88;;;-0.42;100.00
45872;BME280;32333;55.844;-3.210;2023-04-25T05:39:19;99782.40;;;0.37;100.00
45872;BME280;32333;55.844;-3.210;2023-04-25T05:41:46;99791.93;;;-1.07;100.00
45872;BME280;32333;55.844;-3.210;2023-04-25T05:44:36;99793.09;;;-0.46;100.00
45872;BME280;32333;55.844;-3.210;2023-04-25T05:47:05;99789.39;;;-0.05;100.00
45872;BME280;32333;55.844;-3.210;2023-04-25T05:49:33;99789.54;;;-0.12;100.00
45872;BME280;32333;55.844;-3.210;2023-04-25T05:52:00;99778.80;;;0.59;100.00
45872;BME280;32333;55.844;-3.210;2023-04-25T05:54:28;99778.45;;;1.05;100.00
45872;BME280;32333;55.844;-3.210;2023-04-25T05:56:57;99785.97;;;0.04;100.00
45872;BME280;32333;55.844;-3.210;2023-04-25T05:59:25;99790.09;;;0.30;100.00
45872;BME280;32333;55.844;-3.210;2023-04-25T06:01:53;99793.64;;;1.04;100.00
45872;BME280;32333;55.844;-3.210;2023-04-25T06:04:21;99792.41;;;0.50;100.00
45872;BME280;32333;55.844;-3.210;2023-04-25T06:06:49;99796.80;;;0.90;100.00
45872;BME280;32333;55.844;-3.210;2023-04-25T06:09:17;99804.77;;;0.58;100.00
45872;BME280;32333;55.844;-3.210;2023-04-25T06:11:46;99808.34;;;0.83;100.00
45872;BME280;32333;55.844;-3.210;2023-04-25T06:14:37;99810.64;;;1.77;100.00
45872;BME280;32333;55.844;-3.210;2023-04-25T06:17:07;99809.48;;;0.73;100.00
45872;BME280;32333;55.844;-3.210;2023-04-25T06:19:38;99810.52;;;1.57;100.00
45872;BME280;32333;55.844;-3.210;2023-04-25T06:22:07;99812.61;;;1.88;100.00
45872;BME280;32333;55.844;-3.210;2023-04-25T06:24:35;99809.26;;;1.86;100.00
45872;BME280;32333;55.844;-3.210;2023-04-25T06:27:06;99803.15;;;1.39;100.00
45872;BME280;32333;55.844;-3.210;2023-04-25T06:29:33;99802.56;;;1.56;100.00
45872;BME280;32333;55.844;-3.210;2023-04-25T06:32:02;99804.20;;;1.10;100.00
45872;BME280;32333;55.844;-3.210;2023-04-25T06:34:30;99806.57;;;2.80;100.00
45872;BME280;32333;55.844;-3.210;2023-04-25T06:36:58;99808.36;;;2.87;100.00
45872;BME280;32333;55.844;-3.210;2023-04-25T06:39:28;99808.33;;;1.64;100.00
45872;BME280;32333;55.844;-3.210;2023-04-25T06:41:57;99808.72;;;1.44;100.00
45872;BME280;32333;55.844;-3.210;2023-04-25T06:44:36;99807.70;;;1.73;100.00
45872;BME280;32333;55.844;-3.210;2023-04-25T06:47:43;99812.92;;;2.28;100.00
45872;BME280;32333;55.844;-3.210;2023-04-25T06:50:11;99813.71;;;2.10;100.00
45872;BME280;32333;55.844;-3.210;2023-04-25T06:52:39;99815.16;;;2.61;100.00
45872;BME280;32333;55.844;-3.210;2023-04-25T06:55:07;99817.82;;;2.37;100.00
45872;BME280;32333;55.844;-3.210;2023-04-25T06:57:36;99817.67;;;1.71;100.00
45872;BME280;32333;55.844;-3.210;2023-04-25T07:00:05;99814.01;;;2.62;100.00
45872;BME280;32333;55.844;-3.210;2023-04-25T07:02:33;99815.69;;;2.92;100.00
45872;BME280;32333;55.844;-3.210;2023-04-25T07:05:02;99822.22;;;2.53;100.00
45872;BME280;32333;55.844;-3.210;2023-04-25T07:07:29;99822.04;;;3.12;99.39
45872;BME280;32333;55.844;-3.210;2023-04-25T07:09:57;99821.74;;;2.32;96.84
45872;BME280;32333;55.844;-3.210;2023-04-25T07:14:36;99822.85;;;1.63;100.00
45872;BME280;32333;55.844;-3.210;2023-04-25T07:17:04;99821.54;;;2.58;100.00
45872;BME280;32333;55.844;-3.210;2023-04-25T07:19:31;99827.21;;;2.67;100.00
45872;BME280;32333;55.844;-3.210;2023-04-25T07:22:00;99829.52;;;3.35;100.00
45872;BME280;32333;55.844;-3.210;2023-04-25T07:24:27;99833.21;;;4.23;94.99
45872;BME280;32333;55.844;-3.210;2023-04-25T07:26:55;99835.08;;;3.12;97.61
45872;BME280;32333;55.844;-3.210;2023-04-25T07:29:22;99838.60;;;2.99;97.69
45872;BME280;32333;55.844;-3.210;2023-04-25T07:31:50;99834.67;;;4.19;92.74
45872;BME280;32333;55.844;-3.210;2023-04-25T07:34:18;99838.09;;;3.15;96.24
45872;BME280;32333;55.844;-3.210;2023-04-25T07:36:46;99838.94;;;2.87;99.07
45872;BME280;32333;55.844;-3.210;2023-04-25T07:39:14;99845.90;;;3.96;96.36
45872;BME280;32333;55.844;-3.210;2023-04-25T07:41:41;99845.27;;;3.79;98.96
45872;BME280;32333;55.844;-3.210;2023-04-25T07:44:36;99845.42;;;3.67;94.46
45872;BME280;32333;55.844;-3.210;2023-04-25T07:47:05;99840.20;;;2.69;98.88
45872;BME280;32333;55.844;-3.210;2023-04-25T07:49:34;99846.73;;;3.56;95.41
45872;BME280;32333;55.844;-3.210;2023-04-25T07:52:03;99846.34;;;3.69;100.00
45872;BME280;32333;55.844;-3.210;2023-04-25T07:54:30;99844.79;;;3.59;96.65
45872;BME280;32333;55.844;-3.210;2023-04-25T07:56:59;99847.64;;;4.52;98.54
45872;BME280;32333;55.844;-3.210;2023-04-25T07:59:26;99842.57;;;5.31;88.75
45872;BME280;32333;55.844;-3.210;2023-04-25T08:01:54;99844.26;;;4.62;92.89
45872;BME280;32333;55.844;-3.210;2023-04-25T08:04:21;99845.43;;;6.57;82.31
45872;BME280;32333;55.844;-3.210;2023-04-25T08:06:49;99853.37;;;4.20;88.42
45872;BME280;32333;55.844;-3.210;2023-04-25T08:09:17;99850.01;;;5.36;87.20
45872;BME280;32333;55.844;-3.210;2023-04-25T08:11:44;99852.20;;;6.11;85.96
45872;BME280;32333;55.844;-3.210;2023-04-25T08:14:35;99852.22;;;5.17;84.24
45872;BME280;32333;55.844;-3.210;2023-04-25T08:17:03;99852.64;;;5.14;84.47
45872;BME280;32333;55.844;-3.210;2023-04-25T08:19:31;99852.38;;;5.82;78.54
45872;BME280;32333;55.844;-3.210;2023-04-25T08:21:59;99849.41;;;6.04;76.79
45872;BME280;32333;55.844;-3.210;2023-04-25T08:24:27;99852.01;;;4.64;80.12
45872;BME280;32333;55.844;-3.210;2023-04-25T08:26:54;99851.72;;;5.36;76.80
45872;BME280;32333;55.844;-3.210;2023-04-25T08:29:23;99854.16;;;6.09;73.71
45872;BME280;32333;55.844;-3.210;2023-04-25T08:31:51;99856.98;;;6.60;73.15
45872;BME280;32333;55.844;-3.210;2023-04-25T08:34:18;99856.52;;;5.77;81.28
45872;BME280;32333;55.844;-3.210;2023-04-25T08:36:45;99864.48;;;6.63;75.34
45872;BME280;32333;55.844;-3.210;2023-04-25T08:39:13;99864.73;;;6.72;75.53
45872;BME280;32333;55.844;-3.210;2023-04-25T08:41:40;99863.79;;;6.38;71.20
45872;BME280;32333;55.844;-3.210;2023-04-25T08:44:36;99865.42;;;6.57;69.16
45872;BME280;32333;55.844;-3.210;2023-04-25T08:47:05;99870.50;;;6.42;71.74
45872;BME280;32333;55.844;-3.210;2023-04-25T08:49:33;99866.86;;;6.91;70.66
45872;BME280;32333;55.844;-3.210;2023-04-25T08:52:02;99864.05;;;7.02;68.05
45872;BME280;32333;55.844;-3.210;2023-04-25T08:54:31;99864.34;;;8.22;65.62
45872;BME280;32333;55.844;-3.210;2023-04-25T08:57:01;99865.99;;;7.75;62.69
45872;BME280;32333;55.844;-3.210;2023-04-25T08:59:29;99863.31;;;8.19;63.69
45872;BME280;32333;55.844;-3.210;2023-04-25T09:01:58;99857.20;;;8.19;63.66
45872;BME280;32333;55.844;-3.210;2023-04-25T09:04:25;99862.21;;;7.39;69.85
45872;BME280;32333;55.844;-3.210;2023-04-25T09:06:52;99870.23;;;7.89;64.60
45872;BME280;32333;55.844;-3.210;2023-04-25T09:09:21;99869.73;;;7.25;64.18
45872;BME280;32333;55.844;-3.210;2023-04-25T09:11:49;99868.97;;;7.65;61.36
45872;BME280;32333;55.844;-3.210;2023-04-25T09:14:36;99870.46;;;9.21;58.65
45872;BME280;32333;55.844;-3.210;2023-04-25T09:17:04;99867.88;;;7.35;64.05
45872;BME280;32333;55.844;-3.210;2023-04-25T09:19:33;99871.97;;;8.58;61.35
45872;BME280;32333;55.844;-3.210;2023-04-25T09:22:02;99863.39;;;7.11;62.57
45872;BME280;32333;55.844;-3.210;2023-04-25T09:24:31;99866.69;;;5.78;66.63
45872;BME280;32333;55.844;-3.210;2023-04-25T09:26:59;99867.38;;;6.39;67.18
45872;BME280;32333;55.844;-3.210;2023-04-25T09:29:30;99868.97;;;6.64;64.75
45872;BME280;32333;55.844;-3.210;2023-04-25T09:32:17;99870.26;;;6.71;67.02
45872;BME280;32333;55.844;-3.210;2023-04-25T09:34:47;99870.01;;;7.19;62.78
45872;BME280;32333;55.844;-3.210;2023-04-25T09:37:18;99861.02;;;7.63;68.63
45872;BME280;32333;55.844;-3.210;2023-04-25T09:39:47;99860.51;;;8.08;64.15
45872;BME280;32333;55.844;-3.210;2023-04-25T09:44:36;99863.42;;;8.56;63.58
45872;BME280;32333;55.844;-3.210;2023-04-25T09:47:03;99861.55;;;7.17;64.59
45872;BME280;32333;55.844;-3.210;2023-04-25T09:49:30;99865.83;;;7.19;63.81
45872;BME280;32333;55.844;-3.210;2023-04-25T09:51:59;99867.84;;;7.12;63.33
45872;BME280;32333;55.844;-3.210;2023-04-25T09:54:27;99869.43;;;6.88;61.64
45872;BME280;32333;55.844;-3.210;2023-04-25T09:56:55;99871.42;;;8.51;56.60
45872;BME280;32333;55.844;-3.210;2023-04-25T09:59:23;99861.48;;;8.59;57.24
45872;BME280;32333;55.844;-3.210;2023-04-25T10:01:52;99867.47;;;8.95;58.02
45872;BME280;32333;55.844;-3.210;2023-04-25T10:04:25;99863.34;;;8.76;59.00
45872;BME280;32333;55.844;-3.210;2023-04-25T10:06:55;99858.53;;;9.04;53.68
45872;BME280;32333;55.844;-3.210;2023-04-25T10:09:26;99859.97;;;9.68;55.09
45872;BME280;32333;55.844;-3.210;2023-04-25T10:11:55;99862.34;;;10.42;54.66
45872;BME280;32333;55.844;-3.210;2023-04-25T10:14:35;99860.41;;;9.00;53.27
45872;BME280;32333;55.844;-3.210;2023-04-25T10:17:03;99860.97;;;8.73;47.98
45872;BME280;32333;55.844;-3.210;2023-04-25T10:19:30;99862.39;;;8.71;50.95
45872;BME280;32333;55.844;-3.210;2023-04-25T10:22:06;99871.19;;;8.43;54.29
45872;BME280;32333;55.844;-3.210;2023-04-25T10:24:35;99858.26;;;9.46;54.61
45872;BME280;32333;55.844;-3.210;2023-04-25T10:27:04;99861.96;;;7.52;60.69
45872;BME280;32333;55.844;-3.210;2023-04-25T10:29:32;99858.43;;;8.92;57.82
45872;BME280;32333;55.844;-3.210;2023-04-25T10:31:59;99860.77;;;9.00;56.39
45872;BME280;32333;55.844;-3.210;2023-04-25T10:34:39;99862.12;;;9.46;49.28
45872;BME280;32333;55.844;-3.210;2023-04-25T10:37:09;99871.01;;;8.84;50.82
45872;BME280;32333;55.844;-3.210;2023-04-25T10:39:38;99857.01;;;8.57;47.98
45872;BME280;32333;55.844;-3.210;2023-04-25T10:44:37;99842.56;;;9.21;45.07
45872;BME280;32333;55.844;-3.210;2023-04-25T10:47:07;99854.47;;;8.60;55.01
45872;BME280;32333;55.844;-3.210;2023-04-25T10:49:36;99856.30;;;7.92;54.94
45872;BME280;32333;55.844;-3.210;2023-04-25T10:52:13;99851.63;;;6.25;54.01
45872;BME280;32333;55.844;-3.210;2023-04-25T10:54:42;99852.90;;;6.48;54.45
45872;BME280;32333;55.844;-3.210;2023-04-25T10:57:27;99850.31;;;6.07;53.81
45872;BME280;32333;55.844;-3.210;2023-04-25T10:59:57;99843.73;;;7.46;53.49
45872;BME280;32333;55.844;-3.210;2023-04-25T11:02:27;99840.78;;;8.83;48.34
45872;BME280;32333;55.844;-3.210;2023-04-25T11:04:55;99840.42;;;8.39;52.07
45872;BME280;32333;55.844;-3.210;2023-04-25T11:07:30;99834.78;;;9.30;50.12
45872;BME280;32333;55.844;-3.210;2023-04-25T11:10:02;99839.60;;;7.97;50.69
45872;BME280;32333;55.844;-3.210;2023-04-25T11:14:35;99835.46;;;8.14;51.68
45872;BME280;32333;55.844;-3.210;2023-04-25T11:17:03;99834.75;;;6.86;51.32
45872;BME280;32333;55.844;-3.210;2023-04-25T11:19:31;99837.21;;;8.58;51.96
45872;BME280;32333;55.844;-3.210;2023-04-25T11:22:00;99834.91;;;8.09;54.65
45872;BME280;32333;55.844;-3.210;2023-04-25T11:24:27;99824.50;;;9.43;51.41
45872;BME280;32333;55.844;-3.210;2023-04-25T11:26:55;99832.64;;;7.14;52.10
45872;BME280;32333;55.844;-3.210;2023-04-25T11:29:22;99831.93;;;7.07;54.62
45872;BME280;32333;55.844;-3.210;2023-04-25T11:31:50;99837.18;;;7.08;57.96
45872;BME280;32333;55.844;-3.210;2023-04-25T11:34:19;99839.46;;;7.87;54.21
45872;BME280;32333;55.844;-3.210;2023-04-25T11:36:47;99839.53;;;7.60;55.32
45872;BME280;32333;55.844;-3.210;2023-04-25T11:39:14;99836.12;;;7.50;57.73
45872;BME280;32333;55.844;-3.210;2023-04-25T11:41:43;99834.24;;;8.93;54.87
45872;BME280;32333;55.844;-3.210;2023-04-25T11:44:35;99836.27;;;8.58;45.86
45872;BME280;32333;55.844;-3.210;2023-04-25T11:47:04;99830.76;;;8.77;44.59
45872;BME280;32333;55.844;-3.210;2023-04-25T11:49:32;99838.41;;;7.31;52.97
45872;BME280;32333;55.844;-3.210;2023-04-25T11:52:01;99839.86;;;8.43;50.58
45872;BME280;32333;55.844;-3.210;2023-04-25T11:54:29;99839.95;;;7.56;51.89
45872;BME280;32333;55.844;-3.210;2023-04-25T11:56:57;99841.15;;;7.53;53.64
45872;BME280;32333;55.844;-3.210;2023-04-25T11:59:25;99839.89;;;7.88;51.27
45872;BME280;32333;55.844;-3.210;2023-04-25T12:01:53;99840.64;;;8.31;51.06
45872;BME280;32333;55.844;-3.210;2023-04-25T12:04:23;99835.26;;;8.31;52.62
45872;BME280;32333;55.844;-3.210;2023-04-25T12:06:51;99831.08;;;9.93;45.84
45872;BME280;32333;55.844;-3.210;2023-04-25T12:09:28;99830.07;;;9.02;47.29
45872;BME280;32333;55.844;-3.210;2023-04-25T12:11:59;99834.18;;;7.83;49.75
45872;BME280;32333;55.844;-3.210;2023-04-25T12:14:47;99836.17;;;6.97;50.53
45872;BME280;32333;55.844;-3.210;2023-04-25T12:17:14;99833.82;;;8.72;50.89
45872;BME280;32333;55.844;-3.210;2023-04-25T12:19:41;99829.92;;;8.81;48.65
45872;BME280;32333;55.844;-3.210;2023-04-25T12:22:20;99830.54;;;9.06;51.52
45872;BME280;32333;55.844;-3.210;2023-04-25T12:24:48;99828.05;;;9.39;46.36
45872;BME280;32333;55.844;-3.210;2023-04-25T12:27:22;99829.28;;;9.72;45.97
45872;BME280;32333;55.844;-3.210;2023-04-25T12:29:54;99834.12;;;9.09;46.88
45872;BME280;32333;55.844;-3.210;2023-04-25T12:32:21;99839.51;;;8.12;49.45
45872;BME280;32333;55.844;-3.210;2023-04-25T12:34:55;99845.31;;;7.91;48.33
45872;BME280;32333;55.844;-3.210;2023-04-25T12:37:28;99839.07;;;8.90;49.75
45872;BME280;32333;55.844;-3.210;2023-04-25T12:39:55;99840.80;;;8.21;49.50
45872;BME280;32333;55.844;-3.210;2023-04-25T12:44:36;99828.92;;;9.10;45.85
45872;BME280;32333;55.844;-3.210;2023-04-25T12:47:04;99829.20;;;8.18;48.98
45872;BME280;32333;55.844;-3.210;2023-04-25T12:49:32;99826.19;;;8.91;49.67
45872;BME280;32333;55.844;-3.210;2023-04-25T12:51:59;99832.20;;;8.16;46.51
45872;BME280;32333;55.844;-3.210;2023-04-25T12:54:26;99824.46;;;8.72;46.88
45872;BME280;32333;55.844;-3.210;2023-04-25T12:56:53;99828.22;;;7.79;47.17
45872;BME280;32333;55.844;-3.210;2023-04-25T12:59:24;99825.23;;;8.91;44.80
45872;BME280;32333;55.844;-3.210;2023-04-25T13:01:51;99823.89;;;8.99;46.90
45872;BME280;32333;55.844;-3.210;2023-04-25T13:04:18;99823.40;;;8.22;49.00
45872;BME280;32333;55.844;-3.210;2023-04-25T13:06:47;99824.15;;;8.52;48.48
45872;BME280;32333;55.844;-3.210;2023-04-25T13:09:14;99831.35;;;7.90;49.51
45872;BME280;32333;55.844;-3.210;2023-04-25T13:11:41;99826.04;;;6.69;47.76
45872;BME280;32333;55.844;-3.210;2023-04-25T13:14:35;99825.24;;;8.94;46.37
45872;BME280;32333;55.844;-3.210;2023-04-25T13:17:04;99826.93;;;9.22;46.32
45872;BME280;32333;55.844;-3.210;2023-04-25T13:19:31;99826.33;;;9.31;45.58